sensor_id;sensor_type;location;lat;lon;timestamp;temperature;humidity
24207;DHT22;12351;52.284;9.160;2022-09-24T00:01:25;13.80;99.90
24207;DHT22;12351;52.284;9.160;2022-09-24T00:04:13;13.60;99.90
24207;DHT22;12351;52.284;9.160;2022-09-24T00:07:03;13.60;99.90
24207;DHT22;12351;52.284;9.160;2022-09-24T00:09:55;13.60;99.90
24207;DHT22;12351;52.284;9.160;2022-09-24T00:12:47;13.50;99.90
24207;DHT22;12351;52.284;9.160;2022-09-24T00:15:36;13.50;99.90
24207;DHT22;12351;52.284;9.160;2022-09-24T00:18:29;13.40;99.90
24207;DHT22;12351;52.284;9.160;2022-09-24T00:21:20;13.50;99.90
24207;DHT22;12351;52.284;9.160;2022-09-24T00:24:15;13.40;99.90
24207;DHT22;12351;52.284;9.160;2022-09-24T00:27:09;13.50;99.90
24207;DHT22;12351;52.284;9.160;2022-09-24T00:30:00;13.40;99.90
24207;DHT22;12351;52.284;9.160;2022-09-24T00:32:50;13.40;99.90
24207;DHT22;12351;52.284;9.160;2022-09-24T00:35:39;13.20;99.90
24207;DHT22;12351;52.284;9.160;2022-09-24T00:38:35;13.20;99.90
24207;DHT22;12351;52.284;9.160;2022-09-24T00:41:26;13.30;99.90
24207;DHT22;12351;52.284;9.160;2022-09-24T00:50:02;13.10;99.90
24207;DHT22;12351;52.284;9.160;2022-09-24T00:52:52;13.10;99.90
24207;DHT22;12351;52.284;9.160;2022-09-24T00:55:42;13.10;99.90
24207;DHT22;12351;52.284;9.160;2022-09-24T00:58:34;13.10;99.90
24207;DHT22;12351;52.284;9.160;2022-09-24T01:01:24;13.00;99.90
24207;DHT22;12351;52.284;9.160;2022-09-24T01:04:15;13.00;99.90
24207;DHT22;12351;52.284;9.160;2022-09-24T01:07:06;12.90;99.90
24207;DHT22;12351;52.284;9.160;2022-09-24T01:09:56;13.00;99.90
24207;DHT22;12351;52.284;9.160;2022-09-24T01:12:48;13.00;99.90
24207;DHT22;12351;52.284;9.160;2022-09-24T01:15:38;12.80;99.90
24207;DHT22;12351;52.284;9.160;2022-09-24T01:27:03;12.80;99.90
24207;DHT22;12351;52.284;9.160;2022-09-24T01:32:44;12.80;99.90
24207;DHT22;12351;52.284;9.160;2022-09-24T01:35:37;12.80;99.90
24207;DHT22;12351;52.284;9.160;2022-09-24T01:38:28;12.60;99.90
24207;DHT22;12351;52.284;9.160;2022-09-24T01:41:17;12.50;99.90
24207;DHT22;12351;52.284;9.160;2022-09-24T01:44:06;12.60;99.90
24207;DHT22;12351;52.284;9.160;2022-09-24T01:47:00;12.60;99.90
24207;DHT22;12351;52.284;9.160;2022-09-24T01:49:49;12.50;99.90
24207;DHT22;12351;52.284;9.160;2022-09-24T01:55:34;12.50;99.90
24207;DHT22;12351;52.284;9.160;2022-09-24T01:58:22;12.50;99.90
24207;DHT22;12351;52.284;9.160;2022-09-24T02:01:14;12.40;99.90
24207;DHT22;12351;52.284;9.160;2022-09-24T02:04:05;12.40;99.90
24207;DHT22;12351;52.284;9.160;2022-09-24T02:06:54;12.40;99.90
24207;DHT22;12351;52.284;9.160;2022-09-24T02:09:44;12.40;99.90
24207;DHT22;12351;52.284;9.160;2022-09-24T02:12:36;12.40;99.90
24207;DHT22;12351;52.284;9.160;2022-09-24T02:15:31;12.40;99.90
24207;DHT22;12351;52.284;9.160;2022-09-24T02:18:22;12.50;99.90
24207;DHT22;12351;52.284;9.160;2022-09-24T02:21:13;12.30;99.90
24207;DHT22;12351;52.284;9.160;2022-09-24T02:24:04;12.40;99.90
24207;DHT22;12351;52.284;9.160;2022-09-24T02:26:55;12.30;99.90
24207;DHT22;12351;52.284;9.160;2022-09-24T02:29:44;12.30;99.90
24207;DHT22;12351;52.284;9.160;2022-09-24T02:32:38;12.30;99.90
24207;DHT22;12351;52.284;9.160;2022-09-24T02:35:28;12.30;99.90
24207;DHT22;12351;52.284;9.160;2022-09-24T02:38:21;12.30;99.90
24207;DHT22;12351;52.284;9.160;2022-09-24T02:41:15;12.30;99.90
24207;DHT22;12351;52.284;9.160;2022-09-24T02:44:06;12.30;99.90
24207;DHT22;12351;52.284;9.160;2022-09-24T02:46:58;12.30;99.90
24207;DHT22;12351;52.284;9.160;2022-09-24T02:49:48;12.20;99.90
24207;DHT22;12351;52.284;9.160;2022-09-24T02:52:38;12.20;99.90
24207;DHT22;12351;52.284;9.160;2022-09-24T02:55:29;12.20;99.90
24207;DHT22;12351;52.284;9.160;2022-09-24T02:58:21;12.20;99.90
24207;DHT22;12351;52.284;9.160;2022-09-24T03:01:11;12.20;99.90
24207;DHT22;12351;52.284;9.160;2022-09-24T03:04:05;12.10;99.90
24207;DHT22;12351;52.284;9.160;2022-09-24T03:06:55;12.10;99.90
24207;DHT22;12351;52.284;9.160;2022-09-24T03:09:45;12.20;99.90
24207;DHT22;12351;52.284;9.160;2022-09-24T03:12:35;12.20;99.90
24207;DHT22;12351;52.284;9.160;2022-09-24T03:15:25;12.10;99.90
24207;DHT22;12351;52.284;9.160;2022-09-24T03:18:16;12.00;99.90
24207;DHT22;12351;52.284;9.160;2022-09-24T03:21:09;12.10;99.90
24207;DHT22;12351;52.284;9.160;2022-09-24T03:23:59;12.20;99.90
24207;DHT22;12351;52.284;9.160;2022-09-24T03:26:50;12.20;99.90
24207;DHT22;12351;52.284;9.160;2022-09-24T03:29:41;12.20;99.90
24207;DHT22;12351;52.284;9.160;2022-09-24T03:32:29;12.30;99.90
24207;DHT22;12351;52.284;9.160;2022-09-24T03:35:19;12.30;99.90
24207;DHT22;12351;52.284;9.160;2022-09-24T03:38:11;12.30;99.90
24207;DHT22;12351;52.284;9.160;2022-09-24T03:41:03;12.30;99.90
24207;DHT22;12351;52.284;9.160;2022-09-24T03:43:53;12.30;99.90
24207;DHT22;12351;52.284;9.160;2022-09-24T03:46:43;12.30;99.90
24207;DHT22;12351;52.284;9.160;2022-09-24T03:49:36;12.30;99.90
24207;DHT22;12351;52.284;9.160;2022-09-24T03:52:28;12.30;99.90
24207;DHT22;12351;52.284;9.160;2022-09-24T03:55:20;12.40;99.90
24207;DHT22;12351;52.284;9.160;2022-09-24T03:58:12;12.30;99.90
24207;DHT22;12351;52.284;9.160;2022-09-24T04:01:02;12.30;99.90
24207;DHT22;12351;52.284;9.160;2022-09-24T04:03:57;12.20;99.90
24207;DHT22;12351;52.284;9.160;2022-09-24T04:06:46;12.30;99.90
24207;DHT22;12351;52.284;9.160;2022-09-24T04:09:36;12.20;99.90
24207;DHT22;12351;52.284;9.160;2022-09-24T04:12:26;12.20;99.90
24207;DHT22;12351;52.284;9.160;2022-09-24T04:15:19;12.20;99.90
24207;DHT22;12351;52.284;9.160;2022-09-24T04:18:10;12.20;99.90
24207;DHT22;12351;52.284;9.160;2022-09-24T04:21:02;12.20;99.90
24207;DHT22;12351;52.284;9.160;2022-09-24T04:23:52;12.20;99.90
24207;DHT22;12351;52.284;9.160;2022-09-24T04:26:46;12.20;99.90
24207;DHT22;12351;52.284;9.160;2022-09-24T04:29:39;12.10;99.90
24207;DHT22;12351;52.284;9.160;2022-09-24T04:32:28;12.10;99.90
24207;DHT22;12351;52.284;9.160;2022-09-24T04:35:21;12.10;99.90
24207;DHT22;12351;52.284;9.160;2022-09-24T04:38:13;12.10;99.90
24207;DHT22;12351;52.284;9.160;2022-09-24T04:41:04;12.10;99.90
24207;DHT22;12351;52.284;9.160;2022-09-24T04:43:56;12.10;99.90
24207;DHT22;12351;52.284;9.160;2022-09-24T04:46:46;12.10;99.90
24207;DHT22;12351;52.284;9.160;2022-09-24T04:49:38;12.10;99.90
24207;DHT22;12351;52.284;9.160;2022-09-24T04:52:31;12.10;99.90
24207;DHT22;12351;52.284;9.160;2022-09-24T04:55:20;12.10;99.90
24207;DHT22;12351;52.284;9.160;2022-09-24T04:58:11;12.00;99.90
24207;DHT22;12351;52.284;9.160;2022-09-24T05:01:02;12.10;99.90
24207;DHT22;12351;52.284;9.160;2022-09-24T05:03:53;12.10;99.90
24207;DHT22;12351;52.284;9.160;2022-09-24T05:06:43;12.10;99.90
24207;DHT22;12351;52.284;9.160;2022-09-24T05:09:34;12.10;99.90
24207;DHT22;12351;52.284;9.160;2022-09-24T05:12:21;12.10;99.90
24207;DHT22;12351;52.284;9.160;2022-09-24T05:15:11;12.10;99.90
24207;DHT22;12351;52.284;9.160;2022-09-24T05:18:02;12.20;99.90
24207;DHT22;12351;52.284;9.160;2022-09-24T05:20:54;12.20;99.90
24207;DHT22;12351;52.284;9.160;2022-09-24T05:23:45;12.20;99.90
24207;DHT22;12351;52.284;9.160;2022-09-24T05:26:32;12.20;99.90
24207;DHT22;12351;52.284;9.160;2022-09-24T05:29:24;12.20;99.90
24207;DHT22;12351;52.284;9.160;2022-09-24T05:32:16;12.20;99.90
24207;DHT22;12351;52.284;9.160;2022-09-24T05:35:09;12.20;99.90
24207;DHT22;12351;52.284;9.160;2022-09-24T05:37:59;12.20;99.90
24207;DHT22;12351;52.284;9.160;2022-09-24T05:40:51;12.20;99.90
24207;DHT22;12351;52.284;9.160;2022-09-24T05:43:43;12.30;99.90
24207;DHT22;12351;52.284;9.160;2022-09-24T05:46:34;12.30;99.90
24207;DHT22;12351;52.284;9.160;2022-09-24T05:49:24;12.30;99.90
24207;DHT22;12351;52.284;9.160;2022-09-24T05:52:18;12.40;99.90
24207;DHT22;12351;52.284;9.160;2022-09-24T05:55:10;12.40;99.90
24207;DHT22;12351;52.284;9.160;2022-09-24T05:58:01;12.40;99.90
24207;DHT22;12351;52.284;9.160;2022-09-24T06:00:52;12.40;99.90
24207;DHT22;12351;52.284;9.160;2022-09-24T06:03:42;12.40;99.90
24207;DHT22;12351;52.284;9.160;2022-09-24T06:06:33;12.50;99.90
24207;DHT22;12351;52.284;9.160;2022-09-24T06:09:21;12.40;99.90
24207;DHT22;12351;52.284;9.160;2022-09-24T06:12:13;12.40;99.90
24207;DHT22;12351;52.284;9.160;2022-09-24T06:15:03;12.50;99.90
24207;DHT22;12351;52.284;9.160;2022-09-24T06:17:54;12.50;99.90
24207;DHT22;12351;52.284;9.160;2022-09-24T06:20:46;12.50;99.90
24207;DHT22;12351;52.284;9.160;2022-09-24T06:23:36;12.50;99.90
24207;DHT22;12351;52.284;9.160;2022-09-24T06:26:29;12.40;99.90
24207;DHT22;12351;52.284;9.160;2022-09-24T06:29:19;12.40;99.90
24207;DHT22;12351;52.284;9.160;2022-09-24T06:32:10;12.40;99.90
24207;DHT22;12351;52.284;9.160;2022-09-24T06:35:03;12.40;99.90
24207;DHT22;12351;52.284;9.160;2022-09-24T06:37:55;12.50;99.90
24207;DHT22;12351;52.284;9.160;2022-09-24T06:40:45;12.50;99.90
24207;DHT22;12351;52.284;9.160;2022-09-24T06:43:35;12.50;99.90
24207;DHT22;12351;52.284;9.160;2022-09-24T06:46:26;12.50;99.90
24207;DHT22;12351;52.284;9.160;2022-09-24T06:49:18;12.50;99.90
24207;DHT22;12351;52.284;9.160;2022-09-24T06:52:05;12.50;99.90
24207;DHT22;12351;52.284;9.160;2022-09-24T06:54:57;12.60;99.90
24207;DHT22;12351;52.284;9.160;2022-09-24T06:57:49;12.60;99.90
24207;DHT22;12351;52.284;9.160;2022-09-24T07:00:40;12.60;99.90
24207;DHT22;12351;52.284;9.160;2022-09-24T07:03:31;12.70;99.90
24207;DHT22;12351;52.284;9.160;2022-09-24T07:06:20;12.90;99.90
24207;DHT22;12351;52.284;9.160;2022-09-24T07:09:12;13.10;99.90
24207;DHT22;12351;52.284;9.160;2022-09-24T07:12:02;13.20;99.90
24207;DHT22;12351;52.284;9.160;2022-09-24T07:14:51;13.50;99.90
24207;DHT22;12351;52.284;9.160;2022-09-24T07:17:44;13.60;99.90
24207;DHT22;12351;52.284;9.160;2022-09-24T07:20:37;13.60;99.90
24207;DHT22;12351;52.284;9.160;2022-09-24T07:23:28;13.60;99.90
24207;DHT22;12351;52.284;9.160;2022-09-24T07:26:17;13.60;99.90
24207;DHT22;12351;52.284;9.160;2022-09-24T07:29:10;13.70;99.90
24207;DHT22;12351;52.284;9.160;2022-09-24T07:32:00;13.70;99.90
24207;DHT22;12351;52.284;9.160;2022-09-24T07:34:52;13.70;99.90
24207;DHT22;12351;52.284;9.160;2022-09-24T07:37:46;13.80;99.90
24207;DHT22;12351;52.284;9.160;2022-09-24T07:40:37;13.90;99.90
24207;DHT22;12351;52.284;9.160;2022-09-24T07:43:26;13.90;99.90
24207;DHT22;12351;52.284;9.160;2022-09-24T07:46:20;14.00;99.90
24207;DHT22;12351;52.284;9.160;2022-09-24T07:49:10;14.00;99.90
24207;DHT22;12351;52.284;9.160;2022-09-24T07:52:00;14.10;99.90
24207;DHT22;12351;52.284;9.160;2022-09-24T07:54:51;14.10;99.90
24207;DHT22;12351;52.284;9.160;2022-09-24T08:00:32;14.20;99.90
24207;DHT22;12351;52.284;9.160;2022-09-24T08:03:23;14.20;99.90
24207;DHT22;12351;52.284;9.160;2022-09-24T08:06:13;14.20;99.90
24207;DHT22;12351;52.284;9.160;2022-09-24T08:09:04;14.10;99.90
24207;DHT22;12351;52.284;9.160;2022-09-24T08:11:55;14.20;99.90
24207;DHT22;12351;52.284;9.160;2022-09-24T08:14:48;14.10;99.90
24207;DHT22;12351;52.284;9.160;2022-09-24T08:17:39;14.10;99.90
24207;DHT22;12351;52.284;9.160;2022-09-24T08:20:34;14.20;99.90
24207;DHT22;12351;52.284;9.160;2022-09-24T08:23:22;14.30;99.90
24207;DHT22;12351;52.284;9.160;2022-09-24T08:26:14;14.20;99.90
24207;DHT22;12351;52.284;9.160;2022-09-24T08:29:03;14.30;99.90
24207;DHT22;12351;52.284;9.160;2022-09-24T08:31:55;14.30;99.90
24207;DHT22;12351;52.284;9.160;2022-09-24T08:34:43;14.30;99.90
24207;DHT22;12351;52.284;9.160;2022-09-24T08:37:36;14.40;99.90
24207;DHT22;12351;52.284;9.160;2022-09-24T08:40:27;14.40;99.90
24207;DHT22;12351;52.284;9.160;2022-09-24T08:48:58;14.40;99.90
24207;DHT22;12351;52.284;9.160;2022-09-24T08:51:55;14.40;99.90
24207;DHT22;12351;52.284;9.160;2022-09-24T08:54:40;14.40;99.90
24207;DHT22;12351;52.284;9.160;2022-09-24T08:57:32;14.50;99.90
24207;DHT22;12351;52.284;9.160;2022-09-24T09:00:22;14.50;99.90
24207;DHT22;12351;52.284;9.160;2022-09-24T09:11:46;14.50;99.90
24207;DHT22;12351;52.284;9.160;2022-09-24T09:14:40;14.60;99.90
24207;DHT22;12351;52.284;9.160;2022-09-24T09:17:29;14.60;99.90
24207;DHT22;12351;52.284;9.160;2022-09-24T09:20:19;14.60;99.90
24207;DHT22;12351;52.284;9.160;2022-09-24T09:26:03;14.70;99.90
24207;DHT22;12351;52.284;9.160;2022-09-24T09:28:55;14.80;99.90
24207;DHT22;12351;52.284;9.160;2022-09-24T09:37:26;14.90;99.90
24207;DHT22;12351;52.284;9.160;2022-09-24T09:43:10;15.00;99.90
24207;DHT22;12351;52.284;9.160;2022-09-24T09:46:04;15.00;99.90
24207;DHT22;12351;52.284;9.160;2022-09-24T09:48:54;15.00;99.90
24207;DHT22;12351;52.284;9.160;2022-09-24T09:51:45;15.10;99.90
24207;DHT22;12351;52.284;9.160;2022-09-24T09:54:36;15.10;99.90
24207;DHT22;12351;52.284;9.160;2022-09-24T09:57:25;15.10;99.90
24207;DHT22;12351;52.284;9.160;2022-09-24T10:03:19;15.10;99.90
24207;DHT22;12351;52.284;9.160;2022-09-24T10:05:59;15.10;99.90
24207;DHT22;12351;52.284;9.160;2022-09-24T10:08:50;15.30;99.90
24207;DHT22;12351;52.284;9.160;2022-09-24T10:11:39;15.30;99.90
24207;DHT22;12351;52.284;9.160;2022-09-24T10:14:29;15.30;99.90
24207;DHT22;12351;52.284;9.160;2022-09-24T10:17:20;15.20;99.90
24207;DHT22;12351;52.284;9.160;2022-09-24T10:23:03;15.30;99.90
24207;DHT22;12351;52.284;9.160;2022-09-24T10:25:57;15.40;99.90
24207;DHT22;12351;52.284;9.160;2022-09-24T10:28:47;15.30;99.90
24207;DHT22;12351;52.284;9.160;2022-09-24T10:31:36;15.40;99.90
24207;DHT22;12351;52.284;9.160;2022-09-24T10:34:28;15.50;99.90
24207;DHT22;12351;52.284;9.160;2022-09-24T10:37:18;15.40;99.90
24207;DHT22;12351;52.284;9.160;2022-09-24T10:43:02;15.40;99.90
24207;DHT22;12351;52.284;9.160;2022-09-24T10:51:36;15.40;99.90
24207;DHT22;12351;52.284;9.160;2022-09-24T10:57:18;15.40;99.90
24207;DHT22;12351;52.284;9.160;2022-09-24T11:05:49;15.30;99.90
24207;DHT22;12351;52.284;9.160;2022-09-24T11:11:37;15.40;99.90
24207;DHT22;12351;52.284;9.160;2022-09-24T11:25:59;15.50;99.90
24207;DHT22;12351;52.284;9.160;2022-09-24T11:31:40;15.60;99.90
24207;DHT22;12351;52.284;9.160;2022-09-24T12:00:05;15.50;99.90
24207;DHT22;12351;52.284;9.160;2022-09-24T12:02:57;15.50;99.90
24207;DHT22;12351;52.284;9.160;2022-09-24T12:05:50;15.40;99.90
24207;DHT22;12351;52.284;9.160;2022-09-24T12:08:41;15.40;99.90
24207;DHT22;12351;52.284;9.160;2022-09-24T12:11:31;15.50;99.90
24207;DHT22;12351;52.284;9.160;2022-09-24T12:14:21;15.30;99.90
24207;DHT22;12351;52.284;9.160;2022-09-24T12:17:15;15.30;99.90
24207;DHT22;12351;52.284;9.160;2022-09-24T12:20:07;15.30;99.90
24207;DHT22;12351;52.284;9.160;2022-09-24T12:22:57;15.30;99.90
24207;DHT22;12351;52.284;9.160;2022-09-24T12:25:48;15.30;99.90
24207;DHT22;12351;52.284;9.160;2022-09-24T12:28:40;15.30;99.90
24207;DHT22;12351;52.284;9.160;2022-09-24T12:31:33;15.40;99.90
24207;DHT22;12351;52.284;9.160;2022-09-24T12:34:25;15.30;99.90
24207;DHT22;12351;52.284;9.160;2022-09-24T12:37:12;15.50;99.90
24207;DHT22;12351;52.284;9.160;2022-09-24T12:40:07;15.60;99.90
24207;DHT22;12351;52.284;9.160;2022-09-24T12:42:56;15.50;99.90
24207;DHT22;12351;52.284;9.160;2022-09-24T12:45:46;15.50;99.90
24207;DHT22;12351;52.284;9.160;2022-09-24T12:48:36;15.60;99.90
24207;DHT22;12351;52.284;9.160;2022-09-24T12:51:31;15.50;99.90
24207;DHT22;12351;52.284;9.160;2022-09-24T13:02:48;15.60;99.90
24207;DHT22;12351;52.284;9.160;2022-09-24T13:17:03;15.50;99.90
24207;DHT22;12351;52.284;9.160;2022-09-24T13:19:51;15.50;99.90
24207;DHT22;12351;52.284;9.160;2022-09-24T13:22:39;15.50;99.90
24207;DHT22;12351;52.284;9.160;2022-09-24T13:25:27;15.40;99.90
24207;DHT22;12351;52.284;9.160;2022-09-24T13:28:18;15.40;99.90
24207;DHT22;12351;52.284;9.160;2022-09-24T13:31:09;15.50;99.90
24207;DHT22;12351;52.284;9.160;2022-09-24T13:34:00;15.50;99.90
24207;DHT22;12351;52.284;9.160;2022-09-24T13:47:59;15.30;99.90
24207;DHT22;12351;52.284;9.160;2022-09-24T13:50:48;15.30;99.90
24207;DHT22;12351;52.284;9.160;2022-09-24T13:56:28;15.30;99.90
24207;DHT22;12351;52.284;9.160;2022-09-24T13:59:17;15.30;99.90
24207;DHT22;12351;52.284;9.160;2022-09-24T14:04:59;15.30;99.90
24207;DHT22;12351;52.284;9.160;2022-09-24T14:10:42;15.30;99.90
24207;DHT22;12351;52.284;9.160;2022-09-24T14:13:33;15.20;99.90
24207;DHT22;12351;52.284;9.160;2022-09-24T14:16:24;15.30;99.90
24207;DHT22;12351;52.284;9.160;2022-09-24T14:19:14;15.20;99.90
24207;DHT22;12351;52.284;9.160;2022-09-24T14:22:04;15.30;99.90
24207;DHT22;12351;52.284;9.160;2022-09-24T14:27:47;15.20;99.90
24207;DHT22;12351;52.284;9.160;2022-09-24T14:30:36;15.30;99.90
24207;DHT22;12351;52.284;9.160;2022-09-24T14:33:29;15.20;99.90
24207;DHT22;12351;52.284;9.160;2022-09-24T14:36:17;15.10;99.90
24207;DHT22;12351;52.284;9.160;2022-09-24T14:39:09;15.20;99.90
24207;DHT22;12351;52.284;9.160;2022-09-24T14:41:56;15.30;99.90
24207;DHT22;12351;52.284;9.160;2022-09-24T14:44:45;15.20;99.90
24207;DHT22;12351;52.284;9.160;2022-09-24T14:47:36;15.20;99.90
24207;DHT22;12351;52.284;9.160;2022-09-24T14:50:29;15.20;99.90
24207;DHT22;12351;52.284;9.160;2022-09-24T15:01:46;15.00;99.90
24207;DHT22;12351;52.284;9.160;2022-09-24T15:04:35;15.00;99.90
24207;DHT22;12351;52.284;9.160;2022-09-24T15:07:25;15.00;99.90
24207;DHT22;12351;52.284;9.160;2022-09-24T15:10:17;15.00;99.90
24207;DHT22;12351;52.284;9.160;2022-09-24T15:16:01;15.00;99.90
24207;DHT22;12351;52.284;9.160;2022-09-24T15:21:38;15.00;99.90
24207;DHT22;12351;52.284;9.160;2022-09-24T15:24:27;14.80;99.90
24207;DHT22;12351;52.284;9.160;2022-09-24T15:27:20;14.70;99.90
24207;DHT22;12351;52.284;9.160;2022-09-24T15:30:10;14.70;99.90
24207;DHT22;12351;52.284;9.160;2022-09-24T15:32:59;14.70;99.90
24207;DHT22;12351;52.284;9.160;2022-09-24T15:35:48;14.80;99.90
24207;DHT22;12351;52.284;9.160;2022-09-24T15:38:39;14.80;99.90
24207;DHT22;12351;52.284;9.160;2022-09-24T15:41:27;14.80;99.90
24207;DHT22;12351;52.284;9.160;2022-09-24T15:47:09;14.70;99.90
24207;DHT22;12351;52.284;9.160;2022-09-24T15:49:59;14.70;99.90
24207;DHT22;12351;52.284;9.160;2022-09-24T15:55:58;14.80;99.90
24207;DHT22;12351;52.284;9.160;2022-09-24T15:58:45;14.70;99.90
24207;DHT22;12351;52.284;9.160;2022-09-24T16:01:34;14.70;99.90
24207;DHT22;12351;52.284;9.160;2022-09-24T16:04:21;14.60;99.90
24207;DHT22;12351;52.284;9.160;2022-09-24T16:07:11;14.70;99.90
24207;DHT22;12351;52.284;9.160;2022-09-24T16:09:58;14.70;99.90
24207;DHT22;12351;52.284;9.160;2022-09-24T16:12:47;14.70;99.90
24207;DHT22;12351;52.284;9.160;2022-09-24T16:15:35;14.70;99.90
24207;DHT22;12351;52.284;9.160;2022-09-24T16:18:24;14.60;99.90
24207;DHT22;12351;52.284;9.160;2022-09-24T16:21:14;14.60;99.90
24207;DHT22;12351;52.284;9.160;2022-09-24T16:24:03;14.70;99.90
24207;DHT22;12351;52.284;9.160;2022-09-24T16:26:51;14.70;99.90
24207;DHT22;12351;52.284;9.160;2022-09-24T16:29:38;14.70;99.90
24207;DHT22;12351;52.284;9.160;2022-09-24T16:32:27;14.80;99.90
24207;DHT22;12351;52.284;9.160;2022-09-24T16:35:16;14.70;99.90
24207;DHT22;12351;52.284;9.160;2022-09-24T16:38:05;14.60;99.90
24207;DHT22;12351;52.284;9.160;2022-09-24T16:40:58;14.70;99.90
24207;DHT22;12351;52.284;9.160;2022-09-24T16:43:45;14.60;99.90
24207;DHT22;12351;52.284;9.160;2022-09-24T16:46:35;14.60;99.90
24207;DHT22;12351;52.284;9.160;2022-09-24T16:49:25;14.60;99.90
24207;DHT22;12351;52.284;9.160;2022-09-24T16:52:14;14.60;99.90
24207;DHT22;12351;52.284;9.160;2022-09-24T16:55:04;14.60;99.90
24207;DHT22;12351;52.284;9.160;2022-09-24T16:57:54;14.50;99.90
24207;DHT22;12351;52.284;9.160;2022-09-24T17:00:43;14.60;99.90
24207;DHT22;12351;52.284;9.160;2022-09-24T17:03:31;14.60;99.90
24207;DHT22;12351;52.284;9.160;2022-09-24T17:06:21;14.60;99.90
24207;DHT22;12351;52.284;9.160;2022-09-24T17:09:12;14.50;99.90
24207;DHT22;12351;52.284;9.160;2022-09-24T17:12:03;14.50;99.90
24207;DHT22;12351;52.284;9.160;2022-09-24T17:14:52;14.40;99.90
24207;DHT22;12351;52.284;9.160;2022-09-24T17:17:40;14.50;99.90
24207;DHT22;12351;52.284;9.160;2022-09-24T17:20:30;14.50;99.90
24207;DHT22;12351;52.284;9.160;2022-09-24T17:23:18;14.50;99.90
24207;DHT22;12351;52.284;9.160;2022-09-24T17:26:08;14.50;99.90
24207;DHT22;12351;52.284;9.160;2022-09-24T17:28:57;14.50;99.90
24207;DHT22;12351;52.284;9.160;2022-09-24T17:31:46;14.50;99.90
24207;DHT22;12351;52.284;9.160;2022-09-24T17:34:35;14.40;99.90
24207;DHT22;12351;52.284;9.160;2022-09-24T17:37:25;14.40;99.90
24207;DHT22;12351;52.284;9.160;2022-09-24T17:40:12;14.40;99.90
24207;DHT22;12351;52.284;9.160;2022-09-24T17:43:02;14.50;99.90
24207;DHT22;12351;52.284;9.160;2022-09-24T17:45:55;14.30;99.90
24207;DHT22;12351;52.284;9.160;2022-09-24T17:48:45;14.40;99.90
24207;DHT22;12351;52.284;9.160;2022-09-24T17:51:35;14.30;99.90
24207;DHT22;12351;52.284;9.160;2022-09-24T17:54:27;14.40;99.90
24207;DHT22;12351;52.284;9.160;2022-09-24T17:57:15;14.40;99.90
24207;DHT22;12351;52.284;9.160;2022-09-24T18:00:04;14.50;99.90
24207;DHT22;12351;52.284;9.160;2022-09-24T18:02:54;14.40;99.90
24207;DHT22;12351;52.284;9.160;2022-09-24T18:05:44;14.40;99.90
24207;DHT22;12351;52.284;9.160;2022-09-24T18:11:27;14.40;99.90
24207;DHT22;12351;52.284;9.160;2022-09-24T18:14:18;14.40;99.90
24207;DHT22;12351;52.284;9.160;2022-09-24T18:17:07;14.30;99.90
24207;DHT22;12351;52.284;9.160;2022-09-24T18:19:55;14.40;99.90
24207;DHT22;12351;52.284;9.160;2022-09-24T18:22:47;14.40;99.90
24207;DHT22;12351;52.284;9.160;2022-09-24T18:25:35;14.40;99.90
24207;DHT22;12351;52.284;9.160;2022-09-24T18:28:24;14.20;99.90
24207;DHT22;12351;52.284;9.160;2022-09-24T18:31:12;14.20;99.90
24207;DHT22;12351;52.284;9.160;2022-09-24T18:34:04;14.30;99.90
24207;DHT22;12351;52.284;9.160;2022-09-24T18:36:54;14.30;99.90
24207;DHT22;12351;52.284;9.160;2022-09-24T18:39:42;14.40;99.90
24207;DHT22;12351;52.284;9.160;2022-09-24T18:42:32;14.40;99.90
24207;DHT22;12351;52.284;9.160;2022-09-24T18:45:22;14.40;99.90
24207;DHT22;12351;52.284;9.160;2022-09-24T18:48:10;14.40;99.90
24207;DHT22;12351;52.284;9.160;2022-09-24T18:51:00;14.40;99.90
24207;DHT22;12351;52.284;9.160;2022-09-24T18:53:51;14.40;99.90
24207;DHT22;12351;52.284;9.160;2022-09-24T18:56:41;14.40;99.90
24207;DHT22;12351;52.284;9.160;2022-09-24T18:59:28;14.40;99.90
24207;DHT22;12351;52.284;9.160;2022-09-24T19:02:16;14.50;99.90
24207;DHT22;12351;52.284;9.160;2022-09-24T19:05:08;14.30;99.90
24207;DHT22;12351;52.284;9.160;2022-09-24T19:07:55;14.20;99.90
24207;DHT22;12351;52.284;9.160;2022-09-24T19:10:44;14.20;99.90
24207;DHT22;12351;52.284;9.160;2022-09-24T19:13:34;14.20;99.90
24207;DHT22;12351;52.284;9.160;2022-09-24T19:16:26;14.20;99.90
24207;DHT22;12351;52.284;9.160;2022-09-24T19:19:15;14.20;99.90
24207;DHT22;12351;52.284;9.160;2022-09-24T19:22:03;14.20;99.90
24207;DHT22;12351;52.284;9.160;2022-09-24T19:24:52;14.20;99.90
24207;DHT22;12351;52.284;9.160;2022-09-24T19:27:40;14.10;99.90
24207;DHT22;12351;52.284;9.160;2022-09-24T19:33:21;14.00;99.90
24207;DHT22;12351;52.284;9.160;2022-09-24T19:36:10;14.00;99.90
24207;DHT22;12351;52.284;9.160;2022-09-24T19:38:58;14.00;99.90
24207;DHT22;12351;52.284;9.160;2022-09-24T19:41:47;14.00;99.90
24207;DHT22;12351;52.284;9.160;2022-09-24T19:44:35;14.00;99.90
24207;DHT22;12351;52.284;9.160;2022-09-24T19:47:22;14.00;99.90
24207;DHT22;12351;52.284;9.160;2022-09-24T19:50:12;13.90;99.90
24207;DHT22;12351;52.284;9.160;2022-09-24T19:53:00;13.80;99.90
24207;DHT22;12351;52.284;9.160;2022-09-24T19:55:52;13.80;99.90
24207;DHT22;12351;52.284;9.160;2022-09-24T19:58:40;13.80;99.90
24207;DHT22;12351;52.284;9.160;2022-09-24T20:01:31;13.70;99.90
24207;DHT22;12351;52.284;9.160;2022-09-24T20:04:20;13.70;99.90
24207;DHT22;12351;52.284;9.160;2022-09-24T20:07:09;13.70;99.90
24207;DHT22;12351;52.284;9.160;2022-09-24T20:09:57;13.60;99.90
24207;DHT22;12351;52.284;9.160;2022-09-24T20:12:44;13.60;99.90
24207;DHT22;12351;52.284;9.160;2022-09-24T20:15:35;13.60;99.90
24207;DHT22;12351;52.284;9.160;2022-09-24T20:18:23;13.50;99.90
24207;DHT22;12351;52.284;9.160;2022-09-24T20:21:13;13.50;99.90
24207;DHT22;12351;52.284;9.160;2022-09-24T20:24:02;13.60;99.90
24207;DHT22;12351;52.284;9.160;2022-09-24T20:26:50;13.50;99.90
24207;DHT22;12351;52.284;9.160;2022-09-24T20:29:41;13.50;99.90
24207;DHT22;12351;52.284;9.160;2022-09-24T20:32:29;13.40;99.90
24207;DHT22;12351;52.284;9.160;2022-09-24T20:35:20;13.40;99.90
24207;DHT22;12351;52.284;9.160;2022-09-24T20:38:09;13.40;99.90
24207;DHT22;12351;52.284;9.160;2022-09-24T20:40:59;13.30;99.90
24207;DHT22;12351;52.284;9.160;2022-09-24T20:43:48;13.30;99.90
24207;DHT22;12351;52.284;9.160;2022-09-24T20:46:36;13.30;99.90
24207;DHT22;12351;52.284;9.160;2022-09-24T20:49:26;13.30;99.90
24207;DHT22;12351;52.284;9.160;2022-09-24T20:52:16;13.30;99.90
24207;DHT22;12351;52.284;9.160;2022-09-24T20:55:06;13.30;99.90
24207;DHT22;12351;52.284;9.160;2022-09-24T20:57:58;13.30;99.90